Aviation Digital Data Service (ADDS)

Output produced by METARs form (0417 UTC 19 February 2019)
found at http://www.aviationweather.gov/metar/data/
 
METAR text: UUMO 190400Z 00000MPS CAVOK M11/M12 Q1019 R26/090060 NOSIG RMK QFE749/0999
Conditions at: UUMO (OSTAFYEVO INTL , RU) observed 0400 UTC 19 February 2019
Temperature: -11.0°C (12°F)
Dewpoint: -12.0°C (10°F) [RH = 92%]
Pressure (altimeter): 30.09 inches Hg (1019.0 mb)
Winds: calm
Visibility: 6 or more miles (10+ km)
Ceiling: ceiling and visibility are OK
Clouds: unknown
Weather: no significant weather observed at this time

METAR text: UUMO 190330Z 22002MPS CAVOK M11/M13 Q1020 R26/090060 NOSIG RMK QFE749/0999
Conditions at: UUMO (OSTAFYEVO INTL , RU) observed 0330 UTC 19 February 2019
Temperature: -11.0°C (12°F)
Dewpoint: -13.0°C ( 9°F) [RH = 85%]
Pressure (altimeter): 30.12 inches Hg (1020.0 mb)
Winds: from the SW (220 degrees) at 5 MPH (4 knots; 2.1 m/s)
Visibility: 6 or more miles (10+ km)
Ceiling: ceiling and visibility are OK
Clouds: unknown
Weather: no significant weather observed at this time

METAR text: UUMO 190300Z 20002MPS CAVOK M12/M13 Q1020 R26/090060 NOSIG RMK QFE749/0999
Conditions at: UUMO (OSTAFYEVO INTL , RU) observed 0300 UTC 19 February 2019
Temperature: -12.0°C (10°F)
Dewpoint: -13.0°C ( 9°F) [RH = 92%]
Pressure (altimeter): 30.12 inches Hg (1020.0 mb)
Winds: from the SSW (200 degrees) at 5 MPH (4 knots; 2.1 m/s)
Visibility: 6 or more miles (10+ km)
Ceiling: ceiling and visibility are OK
Clouds: unknown
Weather: no significant weather observed at this time

METAR text: UUMO 190230Z 00000MPS CAVOK M12/M13 Q1020 R26/090060 NOSIG RMK QFE750/1000
Conditions at: UUMO (OSTAFYEVO INTL , RU) observed 0230 UTC 19 February 2019
Temperature: -12.0°C (10°F)
Dewpoint: -13.0°C ( 9°F) [RH = 92%]
Pressure (altimeter): 30.12 inches Hg (1020.0 mb)
Winds: calm
Visibility: 6 or more miles (10+ km)
Ceiling: ceiling and visibility are OK
Clouds: unknown
Weather: no significant weather observed at this time

METAR text: UUMO 190200Z 16001MPS CAVOK M11/M13 Q1020 R26/090060 NOSIG RMK QFE750/1000
Conditions at: UUMO (OSTAFYEVO INTL , RU) observed 0200 UTC 19 February 2019
Temperature: -11.0°C (12°F)
Dewpoint: -13.0°C ( 9°F) [RH = 85%]
Pressure (altimeter): 30.12 inches Hg (1020.0 mb)
Winds: from the SSE (160 degrees) at 2 MPH (2 knots; 1.0 m/s)
Visibility: 6 or more miles (10+ km)
Ceiling: ceiling and visibility are OK
Clouds: unknown
Weather: no significant weather observed at this time

METAR text: UUMO 181930Z 33003MPS CAVOK M07/M13 Q1020 R26/090060 NOSIG RMK QFE750/1000
Conditions at: UUMO (OSTAFYEVO INTL , RU) observed 1930 UTC 18 February 2019
Temperature: -7.0°C (19°F)
Dewpoint: -13.0°C ( 9°F) [RH = 62%]
Pressure (altimeter): 30.12 inches Hg (1020.0 mb)
Winds: from the NNW (330 degrees) at 7 MPH (6 knots; 3.1 m/s)
Visibility: 6 or more miles (10+ km)
Ceiling: ceiling and visibility are OK
Clouds: unknown
Weather: no significant weather observed at this time

METAR text: UUMO 181900Z 33003MPS CAVOK M06/M13 Q1020 R26/090060 NOSIG RMK QFE750/1000
Conditions at: UUMO (OSTAFYEVO INTL , RU) observed 1900 UTC 18 February 2019
Temperature: -6.0°C (21°F)
Dewpoint: -13.0°C ( 9°F) [RH = 58%]
Pressure (altimeter): 30.12 inches Hg (1020.0 mb)
Winds: from the NNW (330 degrees) at 7 MPH (6 knots; 3.1 m/s)
Visibility: 6 or more miles (10+ km)
Ceiling: ceiling and visibility are OK
Clouds: unknown
Weather: no significant weather observed at this time

METAR text: UUMO 181830Z 33003MPS CAVOK M06/M13 Q1020 R26/090060 NOSIG RMK QFE750/1000
Conditions at: UUMO (OSTAFYEVO INTL , RU) observed 1830 UTC 18 February 2019
Temperature: -6.0°C (21°F)
Dewpoint: -13.0°C ( 9°F) [RH = 58%]
Pressure (altimeter): 30.12 inches Hg (1020.0 mb)
Winds: from the NNW (330 degrees) at 7 MPH (6 knots; 3.1 m/s)
Visibility: 6 or more miles (10+ km)
Ceiling: ceiling and visibility are OK
Clouds: unknown
Weather: no significant weather observed at this time

METAR text: UUMO 181800Z 33004MPS CAVOK M06/M13 Q1020 R26/090060 NOSIG RMK QFE749/0999
Conditions at: UUMO (OSTAFYEVO INTL , RU) observed 1800 UTC 18 February 2019
Temperature: -6.0°C (21°F)
Dewpoint: -13.0°C ( 9°F) [RH = 58%]
Pressure (altimeter): 30.12 inches Hg (1020.0 mb)
Winds: from the NNW (330 degrees) at 9 MPH (8 knots; 4.1 m/s)
Visibility: 6 or more miles (10+ km)
Ceiling: ceiling and visibility are OK
Clouds: unknown
Weather: no significant weather observed at this time

METAR text: UUMO 181730Z 33003MPS CAVOK M05/M12 Q1020 R26/090060 NOSIG RMK QFE749/0999
Conditions at: UUMO (OSTAFYEVO INTL , RU) observed 1730 UTC 18 February 2019
Temperature: -5.0°C (23°F)
Dewpoint: -12.0°C (10°F) [RH = 58%]
Pressure (altimeter): 30.12 inches Hg (1020.0 mb)
Winds: from the NNW (330 degrees) at 7 MPH (6 knots; 3.1 m/s)
Visibility: 6 or more miles (10+ km)
Ceiling: ceiling and visibility are OK
Clouds: unknown
Weather: no significant weather observed at this time

METAR text: UUMO 181700Z 33004MPS CAVOK M05/M12 Q1020 R26/090060 NOSIG RMK QFE749/0999
Conditions at: UUMO (OSTAFYEVO INTL , RU) observed 1700 UTC 18 February 2019
Temperature: -5.0°C (23°F)
Dewpoint: -12.0°C (10°F) [RH = 58%]
Pressure (altimeter): 30.12 inches Hg (1020.0 mb)
Winds: from the NNW (330 degrees) at 9 MPH (8 knots; 4.1 m/s)
Visibility: 6 or more miles (10+ km)
Ceiling: ceiling and visibility are OK
Clouds: unknown
Weather: no significant weather observed at this time

METAR text: UUMO 181630Z 33004MPS CAVOK M05/M12 Q1019 R26/090060 NOSIG RMK QFE749/0999
Conditions at: UUMO (OSTAFYEVO INTL , RU) observed 1630 UTC 18 February 2019
Temperature: -5.0°C (23°F)
Dewpoint: -12.0°C (10°F) [RH = 58%]
Pressure (altimeter): 30.09 inches Hg (1019.0 mb)
Winds: from the NNW (330 degrees) at 9 MPH (8 knots; 4.1 m/s)
Visibility: 6 or more miles (10+ km)
Ceiling: ceiling and visibility are OK
Clouds: unknown
Weather: no significant weather observed at this time

METAR text: UUMO 181600Z 33005MPS CAVOK M04/M12 Q1019 R26/090060 NOSIG RMK QFE749/0999
Conditions at: UUMO (OSTAFYEVO INTL , RU) observed 1600 UTC 18 February 2019
Temperature: -4.0°C (25°F)
Dewpoint: -12.0°C (10°F) [RH = 54%]
Pressure (altimeter): 30.09 inches Hg (1019.0 mb)
Winds: from the NNW (330 degrees) at 12 MPH (10 knots; 5.1 m/s)
Visibility: 6 or more miles (10+ km)
Ceiling: ceiling and visibility are OK
Clouds: unknown
Weather: no significant weather observed at this time

METAR text: UUMO 181530Z 34006MPS CAVOK M03/M11 Q1019 R26/090060 NOSIG RMK QFE749/0998
Conditions at: UUMO (OSTAFYEVO INTL , RU) observed 1530 UTC 18 February 2019
Temperature: -3.0°C (27°F)
Dewpoint: -11.0°C (12°F) [RH = 54%]
Pressure (altimeter): 30.09 inches Hg (1019.0 mb)
Winds: from the NNW (340 degrees) at 14 MPH (12 knots; 6.2 m/s)
Visibility: 6 or more miles (10+ km)
Ceiling: ceiling and visibility are OK
Clouds: unknown
Weather: no significant weather observed at this time

METAR text: UUMO 181500Z 34006MPS CAVOK M03/M11 Q1018 R26/090060 NOSIG RMK QFE748/0998
Conditions at: UUMO (OSTAFYEVO INTL , RU) observed 1500 UTC 18 February 2019
Temperature: -3.0°C (27°F)
Dewpoint: -11.0°C (12°F) [RH = 54%]
Pressure (altimeter): 30.06 inches Hg (1018.0 mb)
Winds: from the NNW (340 degrees) at 14 MPH (12 knots; 6.2 m/s)
Visibility: 6 or more miles (10+ km)
Ceiling: ceiling and visibility are OK
Clouds: unknown
Weather: no significant weather observed at this time

METAR text: UUMO 181430Z 34007MPS 9999 SCT040 M02/M12 Q1018 R26/090060 NOSIG RMK QFE748/0998
Conditions at: UUMO (OSTAFYEVO INTL , RU) observed 1430 UTC 18 February 2019
Temperature: -2.0°C (28°F)
Dewpoint: -12.0°C (10°F) [RH = 46%]
Pressure (altimeter): 30.06 inches Hg (1018.0 mb)
Winds: from the NNW (340 degrees) at 16 MPH (14 knots; 7.2 m/s)
Visibility: 6 or more miles (10+ km)
Ceiling: at least 12,000 feet AGL
Clouds: scattered clouds at 4000 feet AGL
Weather: no significant weather observed at this time

METAR text: UUMO 181400Z 34008MPS 9999 SCT040 M02/M12 Q1018 R26/090060 NOSIG RMK QFE748/0997
Conditions at: UUMO (OSTAFYEVO INTL , RU) observed 1400 UTC 18 February 2019
Temperature: -2.0°C (28°F)
Dewpoint: -12.0°C (10°F) [RH = 46%]
Pressure (altimeter): 30.06 inches Hg (1018.0 mb)
Winds: from the NNW (340 degrees) at 18 MPH (16 knots; 8.2 m/s)
Visibility: 6 or more miles (10+ km)
Ceiling: at least 12,000 feet AGL
Clouds: scattered clouds at 4000 feet AGL
Weather: no significant weather observed at this time

METAR text: UUMO 181330Z 33009MPS 9999 SCT040 M02/M11 Q1017 R26/090060 NOSIG RMK QFE748/0997
Conditions at: UUMO (OSTAFYEVO INTL , RU) observed 1330 UTC 18 February 2019
Temperature: -2.0°C (28°F)
Dewpoint: -11.0°C (12°F) [RH = 50%]
Pressure (altimeter): 30.03 inches Hg (1017.0 mb)
Winds: from the NNW (330 degrees) at 20 MPH (17 knots; 8.7 m/s)
Visibility: 6 or more miles (10+ km)
Ceiling: at least 12,000 feet AGL
Clouds: scattered clouds at 4000 feet AGL
Weather: no significant weather observed at this time

METAR text: UUMO 181300Z 34009MPS 9999 SCT040 M02/M11 Q1017 R26/090060 NOSIG RMK QFE747/0997
Conditions at: UUMO (OSTAFYEVO INTL , RU) observed 1300 UTC 18 February 2019
Temperature: -2.0°C (28°F)
Dewpoint: -11.0°C (12°F) [RH = 50%]
Pressure (altimeter): 30.03 inches Hg (1017.0 mb)
Winds: from the NNW (340 degrees) at 20 MPH (17 knots; 8.7 m/s)
Visibility: 6 or more miles (10+ km)
Ceiling: at least 12,000 feet AGL
Clouds: scattered clouds at 4000 feet AGL
Weather: no significant weather observed at this time

METAR text: UUMO 181230Z 34007MPS 9999 SCT040 M02/M11 Q1017 R26/090060 NOSIG RMK QFE747/0997
Conditions at: UUMO (OSTAFYEVO INTL , RU) observed 1230 UTC 18 February 2019
Temperature: -2.0°C (28°F)
Dewpoint: -11.0°C (12°F) [RH = 50%]
Pressure (altimeter): 30.03 inches Hg (1017.0 mb)
Winds: from the NNW (340 degrees) at 16 MPH (14 knots; 7.2 m/s)
Visibility: 6 or more miles (10+ km)
Ceiling: at least 12,000 feet AGL
Clouds: scattered clouds at 4000 feet AGL
Weather: no significant weather observed at this time

METAR text: UUMO 181200Z 34008MPS 9999 SCT040 M02/M10 Q1017 R26/090060 NOSIG RMK QFE747/0996
Conditions at: UUMO (OSTAFYEVO INTL , RU) observed 1200 UTC 18 February 2019
Temperature: -2.0°C (28°F)
Dewpoint: -10.0°C (14°F) [RH = 54%]
Pressure (altimeter): 30.03 inches Hg (1017.0 mb)
Winds: from the NNW (340 degrees) at 18 MPH (16 knots; 8.2 m/s)
Visibility: 6 or more miles (10+ km)
Ceiling: at least 12,000 feet AGL
Clouds: scattered clouds at 4000 feet AGL
Weather: no significant weather observed at this time

METAR text: UUMO 181130Z 34007MPS 9999 SCT040 M02/M10 Q1016 R26/090060 NOSIG RMK QFE747/0996
Conditions at: UUMO (OSTAFYEVO INTL , RU) observed 1130 UTC 18 February 2019
Temperature: -2.0°C (28°F)
Dewpoint: -10.0°C (14°F) [RH = 54%]
Pressure (altimeter): 30.00 inches Hg (1016.0 mb)
Winds: from the NNW (340 degrees) at 16 MPH (14 knots; 7.2 m/s)
Visibility: 6 or more miles (10+ km)
Ceiling: at least 12,000 feet AGL
Clouds: scattered clouds at 4000 feet AGL
Weather: no significant weather observed at this time

METAR text: UUMO 181100Z 33007MPS 9999 SCT040 M02/M10 Q1016 R26/910160 NOSIG RMK QFE747/0996
Conditions at: UUMO (OSTAFYEVO INTL , RU) observed 1100 UTC 18 February 2019
Temperature: -2.0°C (28°F)
Dewpoint: -10.0°C (14°F) [RH = 54%]
Pressure (altimeter): 30.00 inches Hg (1016.0 mb)
Winds: from the NNW (330 degrees) at 16 MPH (14 knots; 7.2 m/s)
Visibility: 6 or more miles (10+ km)
Ceiling: at least 12,000 feet AGL
Clouds: scattered clouds at 4000 feet AGL
Weather: no significant weather observed at this time

METAR text: UUMO 181030Z 34007MPS 9999 SCT040 M02/M10 Q1016 R26/910160 NOSIG RMK QFE746/0995
Conditions at: UUMO (OSTAFYEVO INTL , RU) observed 1030 UTC 18 February 2019
Temperature: -2.0°C (28°F)
Dewpoint: -10.0°C (14°F) [RH = 54%]
Pressure (altimeter): 30.00 inches Hg (1016.0 mb)
Winds: from the NNW (340 degrees) at 16 MPH (14 knots; 7.2 m/s)
Visibility: 6 or more miles (10+ km)
Ceiling: at least 12,000 feet AGL
Clouds: scattered clouds at 4000 feet AGL
Weather: no significant weather observed at this time

METAR text: UUMO 181000Z 36008MPS 9999 SCT040 M02/M10 Q1016 R26/910160 NOSIG RMK QFE746/0995
Conditions at: UUMO (OSTAFYEVO INTL , RU) observed 1000 UTC 18 February 2019
Temperature: -2.0°C (28°F)
Dewpoint: -10.0°C (14°F) [RH = 54%]
Pressure (altimeter): 30.00 inches Hg (1016.0 mb)
Winds: from the N (360 degrees) at 18 MPH (16 knots; 8.2 m/s)
Visibility: 6 or more miles (10+ km)
Ceiling: at least 12,000 feet AGL
Clouds: scattered clouds at 4000 feet AGL
Weather: no significant weather observed at this time

METAR text: UUMO 180930Z 36008MPS 9999 SCT040 M02/M11 Q1016 R26/910160 NOSIG RMK QFE746/0995
Conditions at: UUMO (OSTAFYEVO INTL , RU) observed 0930 UTC 18 February 2019
Temperature: -2.0°C (28°F)
Dewpoint: -11.0°C (12°F) [RH = 50%]
Pressure (altimeter): 30.00 inches Hg (1016.0 mb)
Winds: from the N (360 degrees) at 18 MPH (16 knots; 8.2 m/s)
Visibility: 6 or more miles (10+ km)
Ceiling: at least 12,000 feet AGL
Clouds: scattered clouds at 4000 feet AGL
Weather: no significant weather observed at this time

METAR text: UUMO 180900Z 36008MPS 9999 SCT040 M02/M11 Q1015 R26/910160 NOSIG RMK QFE746/0995
Conditions at: UUMO (OSTAFYEVO INTL , RU) observed 0900 UTC 18 February 2019
Temperature: -2.0°C (28°F)
Dewpoint: -11.0°C (12°F) [RH = 50%]
Pressure (altimeter): 29.97 inches Hg (1015.0 mb)
Winds: from the N (360 degrees) at 18 MPH (16 knots; 8.2 m/s)
Visibility: 6 or more miles (10+ km)
Ceiling: at least 12,000 feet AGL
Clouds: scattered clouds at 4000 feet AGL
Weather: no significant weather observed at this time

METAR text: UUMO 180830Z 36010MPS 9999 BKN033 M02/M10 Q1015 R26/910160 NOSIG RMK QFE746/0994
Conditions at: UUMO (OSTAFYEVO INTL , RU) observed 0830 UTC 18 February 2019
Temperature: -2.0°C (28°F)
Dewpoint: -10.0°C (14°F) [RH = 54%]
Pressure (altimeter): 29.97 inches Hg (1015.0 mb)
Winds: from the N (360 degrees) at 22 MPH (19 knots; 9.8 m/s)
Visibility: 6 or more miles (10+ km)
Ceiling: 3300 feet AGL
Clouds: broken clouds at 3300 feet AGL
Weather: no significant weather observed at this time

METAR text: UUMO 180800Z 01009MPS 340V040 9999 BKN033 M02/M10 Q1015 R26/910160 NOSIG RMK QFE745/0994
Conditions at: UUMO (OSTAFYEVO INTL , RU) observed 0800 UTC 18 February 2019
Temperature: -2.0°C (28°F)
Dewpoint: -10.0°C (14°F) [RH = 54%]
Pressure (altimeter): 29.97 inches Hg (1015.0 mb)
Winds: from the N (10 degrees) at 20 MPH (17 knots; 8.7 m/s)
Visibility: 6 or more miles (10+ km)
Ceiling: 3300 feet AGL
Clouds: broken clouds at 3300 feet AGL
Weather: no significant weather observed at this time

METAR text: UUMO 180730Z 36008MPS 320V030 9999 BKN033 M02/M10 Q1014 R26/910160 NOSIG RMK QFE745/0994
Conditions at: UUMO (OSTAFYEVO INTL , RU) observed 0730 UTC 18 February 2019
Temperature: -2.0°C (28°F)
Dewpoint: -10.0°C (14°F) [RH = 54%]
Pressure (altimeter): 29.94 inches Hg (1014.0 mb)
Winds: from the N (360 degrees) at 18 MPH (16 knots; 8.2 m/s)
Visibility: 6 or more miles (10+ km)
Ceiling: 3300 feet AGL
Clouds: broken clouds at 3300 feet AGL
Weather: no significant weather observed at this time

METAR text: UUMO 180700Z 36008G13MPS 330V040 9999 BKN033 M03/M09 Q1014 R26/910160 NOSIG RMK QFE745/0993
Conditions at: UUMO (OSTAFYEVO INTL , RU) observed 0700 UTC 18 February 2019
Temperature: -3.0°C (27°F)
Dewpoint: -9.0°C (16°F) [RH = 63%]
Pressure (altimeter): 29.94 inches Hg (1014.0 mb)
Winds: from the N (360 degrees) at 18 MPH (16 knots; 8.2 m/s)
gusting to 29 MPH (25 knots; 12.9 m/s)
Visibility: 6 or more miles (10+ km)
Ceiling: 3300 feet AGL
Clouds: broken clouds at 3300 feet AGL
Weather: no significant weather observed at this time

METAR text: UUMO 180630Z 34008MPS 9999 BKN033 M03/M09 Q1013 R26/910160 NOSIG RMK QFE744/0993
Conditions at: UUMO (OSTAFYEVO INTL , RU) observed 0630 UTC 18 February 2019
Temperature: -3.0°C (27°F)
Dewpoint: -9.0°C (16°F) [RH = 63%]
Pressure (altimeter): 29.91 inches Hg (1013.0 mb)
Winds: from the NNW (340 degrees) at 18 MPH (16 knots; 8.2 m/s)
Visibility: 6 or more miles (10+ km)
Ceiling: 3300 feet AGL
Clouds: broken clouds at 3300 feet AGL
Weather: no significant weather observed at this time

METAR text: UUMO 180600Z 35008G14MPS 330V030 9999 BKN033 M03/M09 Q1013 R26/910160 NOSIG RMK QFE744/0992
Conditions at: UUMO (OSTAFYEVO INTL , RU) observed 0600 UTC 18 February 2019
Temperature: -3.0°C (27°F)
Dewpoint: -9.0°C (16°F) [RH = 63%]
Pressure (altimeter): 29.91 inches Hg (1013.0 mb)
Winds: from the N (350 degrees) at 18 MPH (16 knots; 8.2 m/s)
gusting to 31 MPH (27 knots; 13.9 m/s)
Visibility: 6 or more miles (10+ km)
Ceiling: 3300 feet AGL
Clouds: broken clouds at 3300 feet AGL
Weather: no significant weather observed at this time

METAR text: UUMO 180530Z 34007MPS 9999 BKN033 M03/M09 Q1012 R26/910160 NOSIG RMK QFE744/0992
Conditions at: UUMO (OSTAFYEVO INTL , RU) observed 0530 UTC 18 February 2019
Temperature: -3.0°C (27°F)
Dewpoint: -9.0°C (16°F) [RH = 63%]
Pressure (altimeter): 29.88 inches Hg (1012.0 mb)
Winds: from the NNW (340 degrees) at 16 MPH (14 knots; 7.2 m/s)
Visibility: 6 or more miles (10+ km)
Ceiling: 3300 feet AGL
Clouds: broken clouds at 3300 feet AGL
Weather: no significant weather observed at this time

METAR text: UUMO 180500Z 34007MPS 9999 BKN033 M03/M09 Q1011 R26/090060 NOSIG RMK QFE743/0991
Conditions at: UUMO (OSTAFYEVO INTL , RU) observed 0500 UTC 18 February 2019
Temperature: -3.0°C (27°F)
Dewpoint: -9.0°C (16°F) [RH = 63%]
Pressure (altimeter): 29.85 inches Hg (1011.0 mb)
Winds: from the NNW (340 degrees) at 16 MPH (14 knots; 7.2 m/s)
Visibility: 6 or more miles (10+ km)
Ceiling: 3300 feet AGL
Clouds: broken clouds at 3300 feet AGL
Weather: no significant weather observed at this time

METAR text: UUMO 180430Z 33008MPS 9999 BKN043 M03/M09 Q1011 R26/090060 NOSIG RMK QFE742/0990
Conditions at: UUMO (OSTAFYEVO INTL , RU) observed 0430 UTC 18 February 2019
Temperature: -3.0°C (27°F)
Dewpoint: -9.0°C (16°F) [RH = 63%]
Pressure (altimeter): 29.85 inches Hg (1011.0 mb)
Winds: from the NNW (330 degrees) at 18 MPH (16 knots; 8.2 m/s)
Visibility: 6 or more miles (10+ km)
Ceiling: 4300 feet AGL
Clouds: broken clouds at 4300 feet AGL
Weather: no significant weather observed at this time

METAR text: UUMO 180400Z 34009MPS 9999 BKN043 M02/M09 Q1010 R26/090060 NOSIG RMK QFE742/0989
Conditions at: UUMO (OSTAFYEVO INTL , RU) observed 0400 UTC 18 February 2019
Temperature: -2.0°C (28°F)
Dewpoint: -9.0°C (16°F) [RH = 59%]
Pressure (altimeter): 29.82 inches Hg (1010.0 mb)
Winds: from the NNW (340 degrees) at 20 MPH (17 knots; 8.7 m/s)
Visibility: 6 or more miles (10+ km)
Ceiling: 4300 feet AGL
Clouds: broken clouds at 4300 feet AGL
Weather: no significant weather observed at this time

METAR text: UUMO 180330Z 35009MPS 9999 BKN043 M02/M09 Q1009 R26/090060 NOSIG RMK QFE741/0989
Conditions at: UUMO (OSTAFYEVO INTL , RU) observed 0330 UTC 18 February 2019
Temperature: -2.0°C (28°F)
Dewpoint: -9.0°C (16°F) [RH = 59%]
Pressure (altimeter): 29.79 inches Hg (1009.0 mb)
Winds: from the N (350 degrees) at 20 MPH (17 knots; 8.7 m/s)
Visibility: 6 or more miles (10+ km)
Ceiling: 4300 feet AGL
Clouds: broken clouds at 4300 feet AGL
Weather: no significant weather observed at this time

METAR text: UUMO 180300Z 35010G15MPS 9999 BKN040 M01/M09 Q1009 R26/090060 NOSIG RMK QFE741/0988
Conditions at: UUMO (OSTAFYEVO INTL , RU) observed 0300 UTC 18 February 2019
Temperature: -1.0°C (30°F)
Dewpoint: -9.0°C (16°F) [RH = 55%]
Pressure (altimeter): 29.79 inches Hg (1009.0 mb)
Winds: from the N (350 degrees) at 22 MPH (19 knots; 9.8 m/s)
gusting to 33 MPH (29 knots; 14.9 m/s)
Visibility: 6 or more miles (10+ km)
Ceiling: 4000 feet AGL
Clouds: broken clouds at 4000 feet AGL
Weather: no significant weather observed at this time

METAR text: UUMO 180230Z 34010MPS 9999 BKN040 M01/M08 Q1008 R26/090060 NOSIG RMK QFE741/0988
Conditions at: UUMO (OSTAFYEVO INTL , RU) observed 0230 UTC 18 February 2019
Temperature: -1.0°C (30°F)
Dewpoint: -8.0°C (18°F) [RH = 59%]
Pressure (altimeter): 29.76 inches Hg (1008.0 mb)
Winds: from the NNW (340 degrees) at 22 MPH (19 knots; 9.8 m/s)
Visibility: 6 or more miles (10+ km)
Ceiling: 4000 feet AGL
Clouds: broken clouds at 4000 feet AGL
Weather: no significant weather observed at this time

METAR text: UUMO 180200Z 35010MPS 9999 BKN040 M02/M07 Q1008 R26/090060 NOSIG RMK QFE741/0988
Conditions at: UUMO (OSTAFYEVO INTL , RU) observed 0200 UTC 18 February 2019
Temperature: -2.0°C (28°F)
Dewpoint: -7.0°C (19°F) [RH = 69%]
Pressure (altimeter): 29.76 inches Hg (1008.0 mb)
Winds: from the N (350 degrees) at 22 MPH (19 knots; 9.8 m/s)
Visibility: 6 or more miles (10+ km)
Ceiling: 4000 feet AGL
Clouds: broken clouds at 4000 feet AGL
Weather: no significant weather observed at this time

METAR text: UUMO 172130Z 33009MPS 9999 BKN043 M00/M08 Q1003 R26/090060 NOSIG RMK QFE737/0983
Conditions at: UUMO (OSTAFYEVO INTL , RU) observed 2130 UTC 17 February 2019
Temperature: 0.0°C (32°F)
Dewpoint: -8.0°C (18°F) [RH = 55%]
Pressure (altimeter): 29.62 inches Hg (1003.0 mb)
Winds: from the NNW (330 degrees) at 20 MPH (17 knots; 8.7 m/s)
Visibility: 6 or more miles (10+ km)
Ceiling: 4300 feet AGL
Clouds: broken clouds at 4300 feet AGL
Weather: no significant weather observed at this time

METAR text: UUMO 172100Z 33011MPS 9999 BKN040 M00/M08 Q1003 R26/190345 NOSIG RMK QFE737/0983
Conditions at: UUMO (OSTAFYEVO INTL , RU) observed 2100 UTC 17 February 2019
Temperature: 0.0°C (32°F)
Dewpoint: -8.0°C (18°F) [RH = 55%]
Pressure (altimeter): 29.62 inches Hg (1003.0 mb)
Winds: from the NNW (330 degrees) at 24 MPH (21 knots; 10.8 m/s)
Visibility: 6 or more miles (10+ km)
Ceiling: 4000 feet AGL
Clouds: broken clouds at 4000 feet AGL
Weather: no significant weather observed at this time

METAR text: UUMO 172030Z 33012MPS 9999 BKN033 M00/M07 Q1002 R26/190345 NOSIG RMK QFE737/0982
Conditions at: UUMO (OSTAFYEVO INTL , RU) observed 2030 UTC 17 February 2019
Temperature: 0.0°C (32°F)
Dewpoint: -7.0°C (19°F) [RH = 59%]
Pressure (altimeter): 29.59 inches Hg (1002.0 mb)
Winds: from the NNW (330 degrees) at 26 MPH (23 knots; 11.8 m/s)
Visibility: 6 or more miles (10+ km)
Ceiling: 3300 feet AGL
Clouds: broken clouds at 3300 feet AGL
Weather: no significant weather observed at this time

METAR text: UUMO 172000Z 33010MPS 9999 BKN033 M00/M06 Q1002 R26/190345 NOSIG RMK QFE736/0982
Conditions at: UUMO (OSTAFYEVO INTL , RU) observed 2000 UTC 17 February 2019
Temperature: 0.0°C (32°F)
Dewpoint: -6.0°C (21°F) [RH = 64%]
Pressure (altimeter): 29.59 inches Hg (1002.0 mb)
Winds: from the NNW (330 degrees) at 22 MPH (19 knots; 9.8 m/s)
Visibility: 6 or more miles (10+ km)
Ceiling: 3300 feet AGL
Clouds: broken clouds at 3300 feet AGL
Weather: no significant weather observed at this time

METAR text: UUMO 171900Z 32012MPS 3000 -SHSN SCT015CB BKN026 M00/M04 Q1001 R26/190345 TEMPO 0500 +SHSN BKN015CB RMK QFE736/0981
Conditions at: UUMO (OSTAFYEVO INTL , RU) observed 1900 UTC 17 February 2019
Temperature: 0.0°C (32°F)
Dewpoint: -4.0°C (25°F) [RH = 74%]
Pressure (altimeter): 29.56 inches Hg (1001.0 mb)
Winds: from the NW (320 degrees) at 26 MPH (23 knots; 11.8 m/s)
Visibility: 1.86 miles (2.99 km)
Ceiling: 2600 feet AGL
Clouds: scattered clouds at 1500 feet AGL
broken clouds at 2600 feet AGL
Weather: -SHSN  (light snow showers)

METAR text: UUMO 171830Z 33009MPS 2000 SHSN SCT011CB BKN026 M01/M02 Q1001 R26/190345 TEMPO 0500 +SHSN BKN015CB RMK QFE736/0981
Conditions at: UUMO (OSTAFYEVO INTL , RU) observed 1830 UTC 17 February 2019
Temperature: -1.0°C (30°F)
Dewpoint: -2.0°C (28°F) [RH = 93%]
Pressure (altimeter): 29.56 inches Hg (1001.0 mb)
Winds: from the NNW (330 degrees) at 20 MPH (17 knots; 8.7 m/s)
Visibility: 1.24 miles (2.00 km)
Ceiling: 2600 feet AGL
Clouds: scattered clouds at 1100 feet AGL
broken clouds at 2600 feet AGL
Weather: SHSN  (snow showers)

METAR text: UUMO 171800Z 35009MPS 0800 R26/1800 +SHSN SCT011CB BKN030 M01/M02 Q1001 R26/190250 TEMPO 0500 +SHSN BKN015CB RMK QFE736/0981
Conditions at: UUMO (OSTAFYEVO INTL , RU) observed 1800 UTC 17 February 2019
Temperature: -1.0°C (30°F)
Dewpoint: -2.0°C (28°F) [RH = 93%]
Pressure (altimeter): 29.56 inches Hg (1001.0 mb)
Winds: from the N (350 degrees) at 20 MPH (17 knots; 8.7 m/s)
Visibility: 0.50 miles (0.80 km)
Ceiling: 3000 feet AGL
Clouds: scattered clouds at 1100 feet AGL
broken clouds at 3000 feet AGL
Weather: +SHSN  (heavy snow showers)

METAR text: UUMO 171730Z 32010MPS 9999 BKN033 01/M05 Q1000 R26/190055 NOSIG RMK QFE735/0980
Conditions at: UUMO (OSTAFYEVO INTL , RU) observed 1730 UTC 17 February 2019
Temperature: 1.0°C (34°F)
Dewpoint: -5.0°C (23°F) [RH = 64%]
Pressure (altimeter): 29.53 inches Hg (1000.0 mb)
Winds: from the NW (320 degrees) at 22 MPH (19 knots; 9.8 m/s)
Visibility: 6 or more miles (10+ km)
Ceiling: 3300 feet AGL
Clouds: broken clouds at 3300 feet AGL
Weather: no significant weather observed at this time

METAR text: UUMO 171700Z 31011MPS 9999 BKN033 01/M04 Q1000 R26/190055 NOSIG RMK QFE735/0980
Conditions at: UUMO (OSTAFYEVO INTL , RU) observed 1700 UTC 17 February 2019
Temperature: 1.0°C (34°F)
Dewpoint: -4.0°C (25°F) [RH = 69%]
Pressure (altimeter): 29.53 inches Hg (1000.0 mb)
Winds: from the NW (310 degrees) at 24 MPH (21 knots; 10.8 m/s)
Visibility: 6 or more miles (10+ km)
Ceiling: 3300 feet AGL
Clouds: broken clouds at 3300 feet AGL
Weather: no significant weather observed at this time

METAR text: UUMO 171630Z 31011MPS 9999 BKN030 BKN070 01/M05 Q1000 R26/190055 NOSIG RMK QFE735/0980
Conditions at: UUMO (OSTAFYEVO INTL , RU) observed 1630 UTC 17 February 2019
Temperature: 1.0°C (34°F)
Dewpoint: -5.0°C (23°F) [RH = 64%]
Pressure (altimeter): 29.53 inches Hg (1000.0 mb)
Winds: from the NW (310 degrees) at 24 MPH (21 knots; 10.8 m/s)
Visibility: 6 or more miles (10+ km)
Ceiling: 3000 feet AGL
Clouds: broken clouds at 3000 feet AGL
broken clouds at 7000 feet AGL
Weather: no significant weather observed at this time

Forecast for: UUMO (OSTAFYEVO INTL , RU)
Text: TAF UUMO 190151Z 1903/1912 27004MPS 9999 SCT030
Forecast period: 0300 to 1200 UTC 19 February 2019
Forecast type: FROM: standard forecast or significant change
Winds: from the W (270 degrees) at 9 MPH (8 knots; 4.1 m/s)
Visibility: 6 or more miles 10+ km)
Ceiling: at least 12,000 feet AGL
Clouds: scattered clouds at 3000 feet AGL
Weather: no significant weather forecast for this period
Text: TEMPO 1906/1912 26009G14MPS
Forecast period: 0600 to 1200 UTC 19 February 2019
Forecast type: TEMPORARY: The following changes expected for less than half the time period
Winds: from the W (260 degrees) at 20 MPH (17 knots; 8.7 m/s)
gusting to 31 MPH (27 knots; 13.9 m/s)
Visibility: missing
Ceiling: unknown
Clouds: missing
Weather: no significant weather forecast for this period